Time;durP1;ratioP1;P1;durP2;ratioP2;P2;SDS_P1;SDS_P2;PMS_P1;PMS_P2;Temp;Humidity;BMP_temperature;BMP_pressure;BME280_temperature;BME280_humidity;BME280_pressure;Samples;Min_cycle;Max_cycle;Signal;HPM_P1;HPM_P2
2023/04/19 00:00:58;;;;;;;15.93;11.30;;;;;;;9.72;100.00;98719.22;5073264;28;20328;-86
2023/04/19 00:03:26;;;;;;;16.07;10.87;;;;;;;9.64;100.00;98721.44;5073681;28;20676;-86
2023/04/19 00:05:53;;;;;;;15.57;11.30;;;;;;;9.61;100.00;98719.81;5074048;28;20223;-86
2023/04/19 00:08:20;;;;;;;16.17;11.27;;;;;;;9.64;100.00;98718.78;5073771;28;20264;-86
2023/04/19 00:10:46;;;;;;;16.20;11.73;;;;;;;9.57;100.00;98720.06;5072984;28;20699;-86
2023/04/19 00:13:13;;;;;;;17.27;11.83;;;;;;;9.62;100.00;98716.22;5073939;28;20208;-86
2023/04/19 00:15:40;;;;;;;17.30;11.20;;;;;;;9.59;100.00;98713.78;5073712;28;20581;-86
2023/04/19 00:18:06;;;;;;;17.67;11.27;;;;;;;9.54;100.00;98723.72;5073368;28;20385;-86
2023/04/19 00:20:34;;;;;;;16.40;12.03;;;;;;;9.49;100.00;98719.66;5073046;28;20220;-85
2023/04/19 00:23:00;;;;;;;14.93;10.83;;;;;;;9.42;100.00;98715.66;5073574;28;20230;-85
2023/04/19 00:25:29;;;;;;;17.93;11.70;;;;;;;9.44;100.00;98711.16;5073461;28;20213;-86
2023/04/19 00:27:55;;;;;;;17.63;11.97;;;;;;;9.39;100.00;98706.13;5073246;28;20581;-86
2023/04/19 00:30:22;;;;;;;16.13;11.60;;;;;;;9.42;100.00;98713.03;5072573;28;20213;-85
2023/04/19 00:32:49;;;;;;;16.17;11.70;;;;;;;9.40;100.00;98704.31;5073425;28;20213;-86
2023/04/19 00:35:15;;;;;;;15.93;11.53;;;;;;;9.42;100.00;98702.47;5075837;28;20290;-85
2023/04/19 00:37:43;;;;;;;17.30;12.03;;;;;;;9.41;100.00;98706.03;5080000;28;20234;-85
2023/04/19 00:40:11;;;;;;;16.40;11.90;;;;;;;9.33;100.00;98705.59;5098223;28;20208;-85
2023/04/19 00:42:37;;;;;;;15.57;11.13;;;;;;;9.31;100.00;98704.84;5098981;28;20200;-85
2023/04/19 00:45:04;;;;;;;17.03;11.50;;;;;;;9.35;100.00;98706.38;5082474;28;20228;-85
2023/04/19 00:47:31;;;;;;;16.70;12.03;;;;;;;9.33;100.00;98701.19;5071827;28;20242;-85
2023/04/19 00:49:57;;;;;;;16.57;11.67;;;;;;;9.44;100.00;98704.09;5072444;28;20222;-86
2023/04/19 00:52:24;;;;;;;16.13;10.93;;;;;;;9.38;100.00;98703.56;5073027;28;20216;-86
2023/04/19 00:54:53;;;;;;;16.33;11.80;;;;;;;9.38;100.00;98706.22;5072964;28;20258;-85
2023/04/19 00:57:21;;;;;;;17.77;12.07;;;;;;;9.39;100.00;98706.13;5072745;28;20258;-86
2023/04/19 00:59:48;;;;;;;16.20;11.43;;;;;;;9.38;100.00;98695.66;5068747;28;20246;-86
2023/04/19 01:02:14;;;;;;;18.00;12.17;;;;;;;9.31;100.00;98703.03;5070408;28;20239;-85
2023/04/19 01:04:41;;;;;;;17.03;11.43;;;;;;;9.32;100.00;98696.84;5069766;28;20213;-85
2023/04/19 01:07:08;;;;;;;15.93;11.80;;;;;;;9.37;100.00;98693.97;5069521;28;20715;-85
2023/04/19 01:09:35;;;;;;;15.43;11.77;;;;;;;9.38;100.00;98685.09;5071278;28;20638;-85
2023/04/19 01:12:03;;;;;;;17.00;12.00;;;;;;;9.36;100.00;98686.97;5072524;28;20210;-86
2023/04/19 01:14:29;;;;;;;15.73;11.37;;;;;;;9.32;100.00;98690.72;5072385;28;20214;-86
2023/04/19 01:16:57;;;;;;;17.30;11.50;;;;;;;9.34;100.00;98681.78;5072506;28;20208;-85
2023/04/19 01:19:23;;;;;;;17.77;11.60;;;;;;;9.36;100.00;98697.53;5071806;28;20204;-86
2023/04/19 01:21:51;;;;;;;16.63;11.60;;;;;;;9.44;100.00;98684.75;5072335;28;20206;-86
2023/04/19 01:24:19;;;;;;;15.43;11.07;;;;;;;9.38;100.00;98685.09;5072268;28;20235;-86
2023/04/19 01:26:45;;;;;;;16.10;11.00;;;;;;;9.30;100.00;98682.06;5072102;28;20194;-86
2023/04/19 01:29:12;;;;;;;17.80;11.43;;;;;;;9.35;100.00;98690.53;5071204;28;20241;-85
2023/04/19 01:31:39;;;;;;;16.90;12.03;;;;;;;9.39;100.00;98678.88;5071495;28;20668;-85
2023/04/19 01:34:05;;;;;;;17.67;12.43;;;;;;;9.37;100.00;98675.50;5072046;28;20215;-86
2023/04/19 01:36:32;;;;;;;15.67;11.20;;;;;;;9.39;100.00;98682.38;5072050;28;20210;-86
2023/04/19 01:38:58;;;;;;;17.80;11.50;;;;;;;9.37;100.00;98672.84;5072235;28;20227;-85
2023/04/19 01:41:28;;;;;;;14.20;11.23;;;;;;;9.45;100.00;98670.63;5071116;28;20581;-85
2023/04/19 01:43:55;;;;;;;16.07;11.27;;;;;;;9.47;100.00;98664.31;5071995;28;20301;-85
2023/04/19 01:46:21;;;;;;;16.67;11.57;;;;;;;9.43;100.00;98657.50;5071843;28;20209;-85
2023/04/19 01:48:47;;;;;;;14.67;10.77;;;;;;;9.35;100.00;98666.78;5071662;28;20243;-85
2023/04/19 01:51:16;;;;;;;14.73;11.33;;;;;;;9.32;100.00;98659.94;5071102;28;20214;-85
2023/04/19 01:53:42;;;;;;;18.07;11.53;;;;;;;9.27;100.00;98661.09;5071731;28;20719;-85
2023/04/19 01:56:09;;;;;;;17.73;12.13;;;;;;;9.30;100.00;98653.03;5071644;28;20207;-85
2023/04/19 01:58:37;;;;;;;18.93;12.63;;;;;;;9.24;100.00;98650.75;5071328;28;20225;-85
2023/04/19 02:01:03;;;;;;;19.77;12.53;;;;;;;9.21;100.00;98661.44;5071049;28;20213;-85
2023/04/19 02:03:30;;;;;;;16.17;11.97;;;;;;;9.15;100.00;98662.66;5071536;28;20678;-85
2023/04/19 02:05:56;;;;;;;15.83;11.17;;;;;;;9.09;100.00;98657.72;5071606;28;20266;-86
2023/04/19 02:08:23;;;;;;;16.13;11.50;;;;;;;9.12;100.00;98646.97;5071414;28;20233;-85
2023/04/19 02:10:49;;;;;;;19.07;12.13;;;;;;;9.11;100.00;98645.28;5071286;28;20203;-85
2023/04/19 02:13:16;;;;;;;17.07;11.87;;;;;;;9.12;100.00;98639.06;5071653;28;20577;-85
2023/04/19 02:15:43;;;;;;;17.80;12.47;;;;;;;9.08;100.00;98640.19;5071082;28;20211;-85
2023/04/19 02:18:10;;;;;;;19.20;13.20;;;;;;;9.09;100.00;98635.75;5071293;28;20226;-85
2023/04/19 02:20:37;;;;;;;16.97;12.53;;;;;;;9.05;100.00;98635.06;5070948;28;20207;-86
2023/04/19 02:23:03;;;;;;;18.93;12.27;;;;;;;9.01;100.00;98637.97;5071401;28;20215;-85
2023/04/19 02:25:30;;;;;;;16.97;12.07;;;;;;;9.03;100.00;98630.81;5071268;28;20216;-85
2023/04/19 02:27:56;;;;;;;17.73;12.43;;;;;;;8.97;100.00;98631.16;5081360;22;20252;-76
2023/04/19 02:30:23;;;;;;;17.07;13.07;;;;;;;8.96;100.00;98630.31;5052678;28;20223;-77
2023/04/19 02:32:51;;;;;;;20.00;12.73;;;;;;;8.91;100.00;98628.84;5050911;28;20217;-77
2023/04/19 02:35:17;;;;;;;17.47;12.70;;;;;;;8.95;100.00;98633.91;5051006;28;20230;-77
2023/04/19 02:37:44;;;;;;;18.13;12.40;;;;;;;9.01;100.00;98632.69;5050780;28;20240;-76
2023/04/19 02:40:11;;;;;;;18.83;13.33;;;;;;;8.99;100.00;98624.03;5050192;28;20211;-76
2023/04/19 02:42:37;;;;;;;16.43;12.27;;;;;;;9.02;100.00;98618.56;5051017;28;20215;-76
2023/04/19 02:45:04;;;;;;;16.90;12.83;;;;;;;8.97;100.00;98625.88;5050871;28;20225;-76
2023/04/19 02:47:31;;;;;;;16.77;12.60;;;;;;;9.01;100.00;98616.88;5050668;28;20233;-76
2023/04/19 02:49:59;;;;;;;16.00;12.77;;;;;;;9.06;100.00;98620.94;5049973;28;20240;-76
2023/04/19 02:52:26;;;;;;;17.20;13.30;;;;;;;8.98;100.00;98620.53;5050752;28;20230;-76
2023/04/19 02:54:53;;;;;;;17.80;12.37;;;;;;;9.09;100.00;98618.16;5050949;28;20526;-76
2023/04/19 02:57:19;;;;;;;17.53;11.97;;;;;;;9.01;100.00;98617.69;5051335;28;20212;-76
2023/04/19 02:59:46;;;;;;;20.83;12.90;;;;;;;8.98;100.00;98617.03;5052411;28;20202;-76
2023/04/19 03:02:12;;;;;;;18.27;13.07;;;;;;;8.95;100.00;98615.44;5050753;28;20214;-76
2023/04/19 03:04:39;;;;;;;19.60;13.03;;;;;;;8.91;100.00;98621.81;5050780;28;20309;-76
2023/04/19 03:07:08;;;;;;;17.60;11.73;;;;;;;8.93;100.00;98616.44;5050558;28;20220;-77
2023/04/19 03:09:34;;;;;;;20.53;12.50;;;;;;;9.03;100.00;98615.00;5049799;28;20686;-76
2023/04/19 03:12:01;;;;;;;16.77;12.13;;;;;;;8.95;100.00;98612.81;5053224;28;20212;-76
2023/04/19 03:14:27;;;;;;;18.00;12.83;;;;;;;8.99;100.00;98613.47;5056760;28;20218;-76
2023/04/19 03:16:54;;;;;;;18.30;12.93;;;;;;;9.00;100.00;98612.53;5063559;28;20277;-76
2023/04/19 03:19:21;;;;;;;17.80;12.77;;;;;;;9.03;100.00;98612.34;5062404;28;20296;-76
2023/04/19 03:21:47;;;;;;;16.70;11.83;;;;;;;9.03;100.00;98609.72;5062495;28;20585;-76
2023/04/19 03:24:15;;;;;;;19.57;13.63;;;;;;;8.97;100.00;98610.91;5062345;28;20213;-76
2023/04/19 03:26:41;;;;;;;17.67;13.13;;;;;;;8.91;100.00;98607.75;5059688;28;20298;-76
2023/04/19 03:29:08;;;;;;;18.47;12.53;;;;;;;8.83;100.00;98604.69;5054892;28;20234;-76
2023/04/19 03:31:34;;;;;;;19.10;13.57;;;;;;;8.88;100.00;98605.31;5054238;28;20210;-77
2023/04/19 03:34:01;;;;;;;18.93;13.53;;;;;;;8.88;100.00;98605.31;5054127;28;20818;-77
2023/04/19 03:36:27;;;;;;;18.80;13.20;;;;;;;8.88;100.00;98610.59;5054038;28;20702;-76
2023/04/19 03:38:53;;;;;;;19.90;13.47;;;;;;;8.88;100.00;98600.88;5054028;28;20636;-77
2023/04/19 03:41:24;;;;;;;19.80;12.93;;;;;;;8.95;100.00;98601.41;5053268;28;20671;-76
2023/04/19 03:43:50;;;;;;;17.97;13.07;;;;;;;8.92;100.00;98601.53;5058820;28;20213;-76
2023/04/19 03:46:17;;;;;;;19.67;13.23;;;;;;;8.84;100.00;98603.75;5061966;28;20208;-76
2023/04/19 03:48:43;;;;;;;17.53;13.00;;;;;;;8.86;100.00;98593.97;5064796;28;20249;-76
2023/04/19 03:51:10;;;;;;;16.93;12.97;;;;;;;8.85;100.00;98595.78;5061722;28;20213;-76
2023/04/19 03:53:37;;;;;;;18.07;12.97;;;;;;;8.82;100.00;98600.38;5060342;28;20242;-77
2023/04/19 03:56:03;;;;;;;17.73;13.40;;;;;;;8.78;100.00;98593.56;5060719;28;20239;-76
2023/04/19 03:58:31;;;;;;;20.87;14.93;;;;;;;8.74;100.00;98598.16;5068324;28;20321;-76
2023/04/19 04:00:58;;;;;;;18.87;12.57;;;;;;;8.73;100.00;98595.59;5067219;28;20218;-76
2023/04/19 04:03:25;;;;;;;19.17;13.07;;;;;;;8.67;100.00;98590.66;5068920;28;20210;-76
2023/04/19 04:05:51;;;;;;;22.47;14.33;;;;;;;8.57;100.00;98595.56;5068934;28;20227;-76
2023/04/19 04:08:18;;;;;;;18.23;13.43;;;;;;;8.46;100.00;98597.09;5068877;28;20234;-76
2023/04/19 04:10:44;;;;;;;19.93;13.23;;;;;;;8.50;100.00;98609.19;5069059;28;20208;-75
2023/04/19 04:13:11;;;;;;;19.90;13.00;;;;;;;8.48;100.00;98605.75;5053617;28;20210;-76
2023/04/19 04:15:38;;;;;;;21.67;13.47;;;;;;;8.52;100.00;98599.41;5053220;28;20269;-76
2023/04/19 04:18:05;;;;;;;16.53;12.73;;;;;;;8.56;100.00;98608.84;5053370;28;20311;-76
2023/04/19 04:20:31;;;;;;;18.70;12.97;;;;;;;8.59;100.00;98598.13;5052618;28;20207;-76
2023/04/19 04:22:58;;;;;;;18.43;12.70;;;;;;;8.54;100.00;98601.03;5054298;28;20231;-76
2023/04/19 04:25:25;;;;;;;18.13;12.47;;;;;;;8.50;100.00;98603.91;5061750;28;20210;-76
2023/04/19 04:27:51;;;;;;;19.77;12.80;;;;;;;8.41;100.00;98604.38;5063901;28;20248;-76
2023/04/19 04:30:18;;;;;;;19.10;11.87;;;;;;;8.31;100.00;98603.16;5056409;28;20213;-75
2023/04/19 04:32:46;;;;;;;17.33;12.40;;;;;;;8.20;100.00;98610.78;5056882;28;20215;-76
2023/04/19 04:35:12;;;;;;;18.13;12.90;;;;;;;8.05;100.00;98606.25;5056586;28;20242;-76
2023/04/19 04:37:39;;;;;;;19.77;12.90;;;;;;;8.06;100.00;98610.59;5056208;28;20237;-76
2023/04/19 04:40:07;;;;;;;20.13;13.23;;;;;;;8.06;100.00;98618.50;5054540;28;20209;-76
2023/04/19 04:42:34;;;;;;;17.63;12.33;;;;;;;8.09;100.00;98618.34;5052832;28;20365;-76
2023/04/19 04:45:00;;;;;;;18.47;12.30;;;;;;;8.08;100.00;98614.03;5053314;28;20241;-76
2023/04/19 04:47:31;;;;;;;20.87;13.67;;;;;;;8.02;100.00;98620.44;5052726;28;20213;-76
2023/04/19 04:49:59;;;;;;;19.33;12.83;;;;;;;8.10;100.00;98615.66;5053553;28;20271;-76
2023/04/19 04:52:25;;;;;;;20.37;12.70;;;;;;;8.23;100.00;98614.09;5056147;28;20217;-76
2023/04/19 04:54:52;;;;;;;17.63;12.17;;;;;;;8.33;100.00;98617.09;5060767;28;20229;-75
2023/04/19 04:57:18;;;;;;;15.37;11.90;;;;;;;8.34;100.00;98608.28;5060012;28;20703;-76
2023/04/19 04:59:46;;;;;;;18.77;12.87;;;;;;;8.42;100.00;98616.59;5058647;28;20208;-76
2023/04/19 05:02:13;;;;;;;16.57;12.20;;;;;;;8.44;100.00;98614.75;5058532;28;20216;-75
2023/04/19 05:04:40;;;;;;;18.63;13.30;;;;;;;8.41;100.00;98614.91;5059255;28;20591;-76
2023/04/19 05:07:07;;;;;;;17.27;12.10;;;;;;;8.50;100.00;98609.19;5059488;28;20216;-76
2023/04/19 05:09:34;;;;;;;16.87;11.67;;;;;;;8.65;100.00;98609.19;5053552;28;20240;-75
2023/04/19 05:12:01;;;;;;;18.43;12.47;;;;;;;8.65;100.00;98616.25;5052193;28;20216;-76
2023/04/19 05:14:27;;;;;;;18.80;12.80;;;;;;;8.79;100.00;98611.94;5052617;28;20712;-76
2023/04/19 05:16:54;;;;;;;19.03;12.63;;;;;;;8.90;100.00;98603.44;5052388;28;20210;-78
2023/04/19 05:19:20;;;;;;;20.87;13.43;;;;;;;8.92;100.00;98602.41;5053706;28;20319;-75
2023/04/19 05:21:48;;;;;;;17.97;12.00;;;;;;;8.93;100.00;98605.91;5057154;28;20216;-75
2023/04/19 05:24:16;;;;;;;16.57;11.63;;;;;;;8.85;100.00;98610.72;5052009;28;20207;-76
2023/04/19 05:26:42;;;;;;;15.83;11.43;;;;;;;8.92;100.00;98605.03;5051939;28;20675;-76
2023/04/19 05:29:08;;;;;;;15.60;11.30;;;;;;;8.86;100.00;98607.16;5051330;28;20593;-75
2023/04/19 05:31:35;;;;;;;19.63;12.10;;;;;;;8.91;100.00;98605.13;5052234;28;20209;-77
2023/04/19 05:34:02;;;;;;;15.77;11.40;;;;;;;8.89;100.00;98612.28;5051440;28;20205;-76
2023/04/19 05:36:28;;;;;;;15.93;11.33;;;;;;;8.85;100.00;98614.22;5051904;28;20263;-76
2023/04/19 05:38:55;;;;;;;15.73;11.53;;;;;;;8.87;100.00;98614.16;5051601;28;20233;-76
2023/04/19 05:41:22;;;;;;;21.07;11.60;;;;;;;8.78;100.00;98609.38;5050967;28;20216;-76
2023/04/19 05:43:49;;;;;;;18.20;12.10;;;;;;;8.83;100.00;98624.03;5052242;28;20209;-76
2023/04/19 05:46:15;;;;;;;18.27;11.87;;;;;;;8.91;100.00;98626.22;5051821;28;20212;-76
2023/04/19 05:48:42;;;;;;;19.17;11.87;;;;;;;8.94;100.00;98615.50;5058570;28;20229;-76
2023/04/19 05:51:08;;;;;;;18.70;11.97;;;;;;;8.99;100.00;98616.13;5056330;28;20209;-76
2023/04/19 05:53:35;;;;;;;19.70;12.50;;;;;;;9.03;100.00;98615.00;5056412;28;20210;-76
2023/04/19 05:56:01;;;;;;;16.20;11.37;;;;;;;9.01;100.00;98614.25;5057730;28;20575;-76
2023/04/19 05:58:29;;;;;;;16.80;11.97;;;;;;;9.19;100.00;98618.50;5059276;28;20235;-76
2023/04/19 06:00:56;;;;;;;18.27;12.10;;;;;;;9.29;100.00;98611.75;5059870;28;20200;-77
2023/04/19 06:03:22;;;;;;;16.07;11.43;;;;;;;9.30;100.00;98603.75;5062551;28;20210;-77
2023/04/19 06:05:49;;;;;;;15.27;10.80;;;;;;;9.34;100.00;98610.56;5056902;28;20301;-77
2023/04/19 06:08:16;;;;;;;14.80;11.20;;;;;;;9.37;100.00;98614.81;5051366;28;20230;-77
2023/04/19 06:10:46;;;;;;;15.87;10.83;;;;;;;9.47;100.00;98602.78;5050565;28;20229;-76
2023/04/19 06:13:12;;;;;;;16.83;11.23;;;;;;;9.55;99.79;98606.69;5051363;28;20209;-77
2023/04/19 06:15:40;;;;;;;16.57;11.00;;;;;;;9.60;97.71;98596.72;5054172;28;20216;-77
2023/04/19 06:18:09;;;;;;;15.83;11.03;;;;;;;9.48;98.05;98599.22;5062649;28;20243;-76
2023/04/19 06:20:35;;;;;;;15.50;10.63;;;;;;;9.46;99.13;98603.72;5051735;28;20214;-76
2023/04/19 06:23:02;;;;;;;16.80;10.57;;;;;;;9.45;99.54;98604.66;5051464;28;20220;-76
2023/04/19 06:25:28;;;;;;;15.17;10.67;;;;;;;9.53;99.93;98605.06;5051312;28;20206;-76
2023/04/19 06:27:55;;;;;;;15.33;11.33;;;;;;;9.55;99.03;98595.28;5051079;28;20244;-77
2023/04/19 06:30:21;;;;;;;15.17;10.30;;;;;;;9.58;99.36;98608.31;5050481;28;20233;-76
2023/04/19 06:32:49;;;;;;;15.77;10.37;;;;;;;9.68;98.91;98604.19;5051237;28;20214;-76
2023/04/19 06:35:16;;;;;;;15.30;11.23;;;;;;;9.80;98.07;98598.22;5051452;28;20212;-77
2023/04/19 06:37:42;;;;;;;14.83;10.10;;;;;;;9.86;98.11;98614.53;5051449;28;20228;-76
2023/04/19 06:40:10;;;;;;;15.03;10.63;;;;;;;9.85;98.11;98607.53;5050172;28;20210;-77
2023/04/19 06:42:36;;;;;;;14.97;10.87;;;;;;;9.96;96.09;98599.84;5051087;28;20209;-77
2023/04/19 06:45:04;;;;;;;14.37;10.63;;;;;;;9.95;95.44;98607.84;5056685;28;20210;-76
2023/04/19 06:47:30;;;;;;;13.00;9.97;;;;;;;10.10;95.05;98596.44;5061812;28;20241;-76
2023/04/19 06:49:58;;;;;;;13.30;10.07;;;;;;;10.28;94.09;98597.97;5071891;28;20229;-76
2023/04/19 06:52:25;;;;;;;13.23;10.23;;;;;;;10.43;92.27;98604.94;5075660;28;20217;-78
2023/04/19 06:54:52;;;;;;;13.57;9.80;;;;;;;10.67;92.00;98599.00;5072141;28;20278;-77
2023/04/19 06:57:18;;;;;;;13.20;9.93;;;;;;;10.86;91.80;98591.63;5070123;28;20221;-77
2023/04/19 06:59:45;;;;;;;13.43;9.57;;;;;;;11.04;88.97;98586.94;5068033;28;20588;-77
2023/04/19 07:02:11;;;;;;;12.70;9.60;;;;;;;11.19;87.81;98591.28;5068134;28;20219;-76
2023/04/19 07:04:38;;;;;;;13.65;11.35;;;;;;;11.30;85.64;98584.31;5059682;28;20442;-76
2023/04/19 07:07:06;;;;;;;13.73;9.67;;;;;;;11.28;84.74;98570.34;5062970;28;20210;-77
2023/04/19 07:09:32;;;;;;;14.27;9.63;;;;;;;11.32;85.72;98581.59;5060341;28;20600;-76
2023/04/19 07:12:00;;;;;;;12.67;10.17;;;;;;;11.38;86.77;98587.31;5058375;28;20215;-77
2023/04/19 07:14:26;;;;;;;13.77;10.07;;;;;;;11.30;84.53;98575.53;5061831;28;20655;-77
2023/04/19 07:16:53;;;;;;;14.30;9.93;;;;;;;11.23;85.16;98583.03;5065094;28;20207;-77
2023/04/19 07:19:21;;;;;;;14.37;9.60;;;;;;;11.23;85.50;98576.88;5071628;28;20236;-78
2023/04/19 07:21:48;;;;;;;13.87;10.10;;;;;;;11.35;85.46;98581.38;5073496;28;20218;-78
2023/04/19 07:24:16;;;;;;;14.17;10.37;;;;;;;11.37;87.11;98584.78;5071066;28;20214;-73
2023/04/19 07:26:42;;;;;;;11.93;8.83;;;;;;;11.36;83.87;98572.47;5069983;28;20223;-75
2023/04/19 07:29:09;;;;;;;12.97;10.33;;;;;;;11.42;84.00;98572.09;5068474;28;20246;-78
2023/04/19 07:31:36;;;;;;;12.53;9.50;;;;;;;11.39;85.21;98574.94;5062513;28;20228;-77
2023/04/19 07:34:02;;;;;;;14.63;9.67;;;;;;;11.42;84.44;98561.50;5053998;28;20215;-77
2023/04/19 07:36:30;;;;;;;13.10;10.50;;;;;;;11.37;84.72;98574.22;5053904;28;20208;-77
2023/04/19 07:38:57;;;;;;;13.67;10.30;;;;;;;11.54;84.55;98565.97;5053986;28;20230;-77
2023/04/19 07:41:24;;;;;;;12.50;9.57;;;;;;;11.69;85.34;98568.50;5053468;28;20583;-77
2023/04/19 07:43:51;;;;;;;12.23;9.03;;;;;;;11.82;84.36;98565.88;5053943;28;20223;-77
2023/04/19 07:46:17;;;;;;;13.83;10.27;;;;;;;11.88;84.47;98565.47;5053933;28;20220;-77
2023/04/19 07:48:45;;;;;;;12.90;9.17;;;;;;;11.92;84.94;98561.69;5053816;28;20859;-77
2023/04/19 07:51:12;;;;;;;12.47;8.77;;;;;;;11.98;81.04;98540.06;5052851;28;20235;-77
2023/04/19 07:53:40;;;;;;;11.53;8.77;;;;;;;11.88;79.84;98544.28;5053963;28;20215;-77
2023/04/19 07:56:07;;;;;;;13.20;9.73;;;;;;;11.91;84.24;98559.94;5054118;28;20279;-77
2023/04/19 07:58:35;;;;;;;11.40;8.33;;;;;;;12.06;82.86;98548.31;5053339;28;20224;-77
2023/04/19 08:01:02;;;;;;;11.23;9.10;;;;;;;12.32;83.09;98556.19;5053268;28;20216;-77
2023/04/19 08:03:29;;;;;;;10.83;8.27;;;;;;;12.55;77.89;98530.69;5053956;28;20309;-77
2023/04/19 08:05:55;;;;;;;12.30;10.00;;;;;;;12.75;80.63;98543.38;5053153;28;20212;-77
2023/04/19 08:08:23;;;;;;;12.23;8.00;;;;;;;12.77;78.09;98530.88;5053173;28;20228;-81
2023/04/19 08:10:49;;;;;;;10.87;8.17;;;;;;;12.71;75.35;98524.19;5052827;28;20688;-81
2023/04/19 08:13:16;;;;;;;9.63;8.23;;;;;;;12.65;78.05;98540.53;5053310;28;20231;-81
2023/04/19 08:15:44;;;;;;;10.17;8.53;;;;;;;12.67;79.51;98543.09;5053774;28;20230;-82
2023/04/19 08:18:10;;;;;;;12.03;9.00;;;;;;;12.64;81.40;98548.59;5053605;28;20246;-82
2023/04/19 08:20:37;;;;;;;10.93;8.87;;;;;;;12.52;80.44;98546.81;5052499;28;20219;-82
2023/04/19 08:23:05;;;;;;;12.03;9.27;;;;;;;12.52;79.77;98541.50;5053468;28;20594;-82
2023/04/19 08:25:31;;;;;;;11.17;8.80;;;;;;;12.56;79.88;98546.50;5053342;28;20207;-82
2023/04/19 08:27:58;;;;;;;11.77;9.57;;;;;;;12.51;80.16;98540.69;5073133;22;20227;-79
2023/04/19 08:30:25;;;;;;;11.47;8.50;;;;;;;12.49;81.32;98552.34;5113286;28;20237;-79
2023/04/19 08:32:52;;;;;;;12.03;8.83;;;;;;;12.41;79.75;98544.94;5114068;28;20214;-79
2023/04/19 08:35:20;;;;;;;11.73;8.67;;;;;;;12.31;80.51;98553.63;5114060;28;20206;-79
2023/04/19 08:37:47;;;;;;;11.37;8.70;;;;;;;12.32;81.28;98547.38;5113872;28;20668;-78
2023/04/19 08:40:15;;;;;;;11.77;9.30;;;;;;;12.29;80.99;98539.66;5113165;28;20204;-77
2023/04/19 08:42:42;;;;;;;12.20;8.97;;;;;;;12.27;81.13;98547.69;5114195;28;20234;-77
2023/04/19 08:45:12;;;;;;;11.63;9.30;;;;;;;12.31;83.19;98548.34;5114107;28;20592;-77
2023/04/19 08:47:40;;;;;;;12.97;9.90;;;;;;;12.23;80.22;98532.13;5113444;28;20439;-79
2023/04/19 08:50:08;;;;;;;12.30;9.13;;;;;;;12.17;81.20;98551.09;5113078;28;20260;-78
2023/04/19 08:52:37;;;;;;;11.90;8.73;;;;;;;12.15;78.58;98524.69;5113588;28;20216;-78
2023/04/19 08:55:03;;;;;;;12.77;9.17;;;;;;;12.02;80.78;98533.59;5113485;28;20202;-78
2023/04/19 08:57:31;;;;;;;12.57;10.60;;;;;;;12.11;79.45;98525.03;5112904;28;20450;-78
2023/04/19 08:59:57;;;;;;;11.43;8.90;;;;;;;12.04;78.37;98523.75;5112782;28;20231;-83
2023/04/19 09:02:24;;;;;;;13.17;9.03;;;;;;;11.99;79.74;98526.69;5113615;28;20209;-83
2023/04/19 09:04:51;;;;;;;11.33;8.70;;;;;;;12.08;80.31;98523.44;5113895;28;20760;-81
2023/04/19 09:07:26;;;;;;;10.87;8.33;;;;;;;12.28;78.51;98516.75;5113636;28;20543;-83
2023/04/19 09:10:12;;;;;;;12.30;9.43;;;;;;;12.43;76.99;98505.91;5112259;28;20232;-88
2023/04/19 09:12:40;;;;;;;13.47;8.63;;;;;;;12.52;77.32;98507.91;5114067;28;20217;-82
2023/04/19 09:15:08;;;;;;;12.23;8.87;;;;;;;12.58;77.71;98511.91;5113287;28;20299;-81
2023/04/19 09:17:35;;;;;;;12.33;9.20;;;;;;;12.61;79.02;98517.00;5113458;28;20641;-81
2023/04/19 09:20:03;;;;;;;11.13;9.07;;;;;;;12.57;77.62;98507.56;5112420;28;20208;-81
2023/04/19 09:22:31;;;;;;;11.63;9.30;;;;;;;12.76;77.70;98505.28;5113340;28;20205;-79
2023/04/19 09:24:59;;;;;;;11.77;9.33;;;;;;;12.83;76.58;98499.44;5113455;28;20205;-80
2023/04/19 09:27:28;;;;;;;14.90;9.43;;;;;;;13.03;76.69;98492.72;5112960;28;20205;-79
2023/04/19 09:29:56;;;;;;;13.13;9.00;;;;;;;13.13;76.93;98494.59;5112252;28;20314;-78
2023/04/19 09:32:22;;;;;;;10.50;8.50;;;;;;;13.27;73.67;98482.97;5112475;28;20221;-80
2023/04/19 09:34:54;;;;;;;11.50;8.57;;;;;;;13.56;72.53;98463.03;5113568;28;20206;-81
2023/04/19 09:37:21;;;;;;;11.43;8.70;;;;;;;13.72;68.90;98443.16;5113485;28;20210;-80
2023/04/19 09:39:49;;;;;;;11.27;8.67;;;;;;;13.78;68.21;98439.16;5112259;28;20279;-79
2023/04/19 09:42:17;;;;;;;10.87;8.37;;;;;;;13.86;69.68;98455.34;5112795;28;20222;-85
2023/04/19 09:44:56;;;;;;;10.00;8.27;;;;;;;14.01;70.16;98449.72;5113258;28;20269;-87
2023/04/19 09:47:23;;;;;;;10.00;7.83;;;;;;;14.27;72.15;98463.66;5113416;28;20213;-88
2023/04/19 09:50:04;;;;;;;8.97;7.57;;;;;;;14.37;68.29;98435.38;5112592;28;20279;-85
2023/04/19 09:52:32;;;;;;;10.27;8.40;;;;;;;14.13;66.34;98437.28;5113050;28;20209;-84
2023/04/19 09:55:00;;;;;;;10.80;8.27;;;;;;;13.91;70.72;98461.16;5113446;28;20218;-86
2023/04/19 09:57:27;;;;;;;11.60;8.60;;;;;;;13.75;70.32;98452.69;5112669;28;20246;-84
2023/04/19 09:59:54;;;;;;;12.93;9.07;;;;;;;13.56;71.47;98450.59;5112207;28;20233;-86
2023/04/19 10:02:21;;;;;;;13.40;8.60;;;;;;;13.40;71.07;98442.13;5112941;28;20206;-85
2023/04/19 10:04:48;;;;;;;10.03;8.23;;;;;;;13.29;70.69;98443.88;5112978;28;20788;-82
2023/04/19 10:07:15;;;;;;;8.93;7.43;;;;;;;13.06;71.54;98447.38;5112936;28;20204;-86
2023/04/19 10:09:41;;;;;;;9.17;7.83;;;;;;;13.07;74.71;98462.38;5112413;28;20224;-81
2023/04/19 10:12:09;;;;;;;10.70;8.90;;;;;;;13.14;75.50;98463.59;5112422;28;20229;-85
2023/04/19 10:14:38;;;;;;;11.40;9.03;;;;;;;13.21;75.60;98464.84;5112704;28;20576;-86
2023/04/19 10:17:05;;;;;;;11.60;7.93;;;;;;;13.26;75.70;98460.03;5112640;28;20212;-84
2023/04/19 10:19:35;;;;;;;10.80;8.73;;;;;;;13.33;76.60;98459.44;5117799;28;20237;-84
2023/04/19 10:22:05;;;;;;;9.77;8.10;;;;;;;13.36;72.33;98434.47;5121760;28;20274;-83
2023/04/19 10:24:33;;;;;;;11.77;8.03;;;;;;;13.26;71.87;98438.78;5138084;28;20194;-87
2023/04/19 10:27:10;;;;;;;9.80;7.83;;;;;;;13.20;69.94;98423.34;5138053;28;20196;-85
2023/04/19 10:29:59;;;;;;;10.83;8.30;;;;;;;13.01;73.26;98441.59;5123892;28;20239;-83
2023/04/19 10:32:28;;;;;;;10.37;8.10;;;;;;;12.96;72.66;98441.09;5114089;28;20194;-84
2023/04/19 10:34:54;;;;;;;11.20;8.50;;;;;;;12.91;74.83;98453.78;5114814;28;20209;-81
2023/04/19 10:37:26;;;;;;;9.90;8.00;;;;;;;12.88;71.70;98432.78;5113928;28;20212;-87
2023/04/19 10:39:52;;;;;;;9.77;8.20;;;;;;;13.04;72.47;98436.03;5112125;28;20229;-81
2023/04/19 10:42:20;;;;;;;11.40;8.67;;;;;;;13.07;72.50;98434.00;5112489;28;20198;-84
2023/04/19 10:45:24;;;;;;;14.23;9.63;;;;;;;13.14;72.71;98435.22;5112082;28;20690;-77
2023/04/19 10:47:52;;;;;;;10.27;8.63;;;;;;;13.18;73.72;98442.03;5112103;28;20219;-85
2023/04/19 10:50:18;;;;;;;10.00;8.33;;;;;;;12.93;71.49;98420.88;5111334;28;20209;-85
2023/04/19 10:52:45;;;;;;;11.80;8.63;;;;;;;12.97;73.06;98429.50;5112315;28;20213;-86
2023/04/19 10:55:15;;;;;;;10.73;8.40;;;;;;;12.91;73.00;98416.66;5112282;28;20215;-86
2023/04/19 10:58:02;;;;;;;10.77;8.53;;;;;;;12.70;73.03;98407.59;5111340;28;20734;-86
2023/04/19 11:00:31;;;;;;;13.23;8.70;;;;;;;12.60;75.73;98430.47;5111505;28;20213;-84
2023/04/19 11:02:57;;;;;;;11.70;8.40;;;;;;;12.52;76.12;98430.16;5112383;28;20633;-87
2023/04/19 11:05:24;;;;;;;10.13;8.40;;;;;;;12.39;77.72;98429.34;5112320;28;20435;-87
2023/04/19 11:07:51;;;;;;;9.83;7.93;;;;;;;12.36;78.19;98429.59;5109182;28;20303;-86
2023/04/19 11:10:28;;;;;;;12.07;9.00;;;;;;;12.33;78.18;98424.50;5110092;28;20757;-86
2023/04/19 11:12:55;;;;;;;11.30;8.57;;;;;;;12.30;79.53;98427.38;5111463;28;20205;-86
2023/04/19 11:15:23;;;;;;;12.07;8.43;;;;;;;12.37;81.30;98436.56;5110727;28;20207;-86
2023/04/19 11:17:51;;;;;;;15.23;9.40;;;;;;;12.22;81.27;98433.22;5112013;28;20209;-85
2023/04/19 11:20:19;;;;;;;11.13;8.53;;;;;;;11.92;82.54;98434.53;5113274;28;20209;-86
2023/04/19 11:22:46;;;;;;;12.20;9.07;;;;;;;11.68;86.31;98441.53;5113540;28;20216;-86